Senja — 9HA4223 — position and weather

sailwx.info

Track history (hours):
 
Tides and Currents Weather Stations Pressure Air Temp Water Temp Dewpoint Dewpoint Depression Visibility Wind Speed Wind Dir Waves Ship Positions

Senja

Last reported at 2017-Dec-08 15:53 UTC. Time now 2017-Dec-14 17:13 UTC.
Position N 08°17' W 015°07'.

Length 148 m; draft 5.8 m.

Type: Cargo ship. MMSI: 249378000.

Date/timePositionNaut miles runAvg speedWind from/ knotsBaromVisibWave heightAir tempDewpointWater temp
2017-Dec-08 15:53N 08°17' W 015°07'711.0
2017-Dec-08 15:13N 08°22' W 015°12'2112.1
2017-Dec-08 13:29N 08°36' W 015°28'612.0
2017-Dec-08 13:00N 08°40' W 015°32'611.7
2017-Dec-08 12:29N 08°44' W 015°37'  
2017-Nov-28 20:48N 27°34' W 015°17'310.4
2017-Nov-28 20:28N 27°38' W 015°16'510.2
2017-Nov-28 20:00N 27°42' W 015°13'5 9.2
2017-Nov-28 19:30N 27°46' W 015°11'5 9.3
2017-Nov-28 19:00N 27°50' W 015°09'4 8.3
2017-Nov-28 18:30N 27°54' W 015°11'510.0
2017-Nov-28 18:00N 27°58' W 015°14'510.1
2017-Nov-28 17:30N 28°02' W 015°18'510.1
2017-Nov-28 17:00N 28°06' W 015°21'3 5.6
2017-Nov-28 16:30N 28°07' W 015°24'0 0.0
2017-Nov-28 15:54N 28°07' W 015°24'  
Track history (hours):
 
Tides and Currents Weather Stations Pressure Air Temp Water Temp Dewpoint Dewpoint Depression Visibility Wind Speed Wind Dir Waves Ship Positions

Senja

Last reported at 2017-Dec-08 15:53 UTC. Time now 2017-Dec-14 17:13 UTC.
Position N 08°17' W 015°07'.

Length 148 m; draft 5.8 m.

Type: Cargo ship. MMSI: 249378000.

Date/timePositionNaut miles runAvg speedWind from/ knotsBaromVisibWave heightAir tempDewpointWater temp
2017-Dec-08 15:53N 08°17' W 015°07'711.0
2017-Dec-08 15:13N 08°22' W 015°12'2112.1
2017-Dec-08 13:29N 08°36' W 015°28'612.0
2017-Dec-08 13:00N 08°40' W 015°32'611.7
2017-Dec-08 12:29N 08°44' W 015°37'  
2017-Nov-28 20:48N 27°34' W 015°17'310.4
2017-Nov-28 20:28N 27°38' W 015°16'510.2
2017-Nov-28 20:00N 27°42' W 015°13'5 9.2
2017-Nov-28 19:30N 27°46' W 015°11'5 9.3
2017-Nov-28 19:00N 27°50' W 015°09'4 8.3
2017-Nov-28 18:30N 27°54' W 015°11'510.0
2017-Nov-28 18:00N 27°58' W 015°14'510.1
2017-Nov-28 17:30N 28°02' W 015°18'510.1
2017-Nov-28 17:00N 28°06' W 015°21'3 5.6
2017-Nov-28 16:30N 28°07' W 015°24'0 0.0
2017-Nov-28 15:54N 28°07' W 015°24'  

Dump ship's entire track history